createdAt,value
2018-11-29T00:00:24.798Z,13.30
2018-11-29T00:02:52.758Z,16.65
2018-11-29T00:05:21.033Z,19.77
2018-11-29T00:07:48.990Z,19.85
2018-11-29T00:10:16.723Z,18.87
2018-11-29T00:12:45.204Z,15.80
2018-11-29T00:15:17.811Z,13.75
2018-11-29T00:17:45.573Z,24.12
2018-11-29T00:20:17.442Z,16.35
2018-11-29T00:22:46.154Z,17.25
2018-11-29T00:25:15.304Z,18.30
2018-11-29T00:27:43.893Z,19.80
2018-11-29T00:30:18.807Z,20.10
2018-11-29T00:32:47.413Z,18.50
2018-11-29T00:35:16.109Z,20.00
2018-11-29T00:37:43.973Z,15.05
2018-11-29T00:40:19.782Z,17.92
2018-11-29T00:42:47.678Z,14.45
2018-11-29T00:45:25.229Z,20.30
2018-11-29T00:47:52.919Z,19.32
2018-11-29T00:50:21.934Z,17.15
2018-11-29T00:52:50.497Z,17.45
2018-11-29T00:55:19.639Z,18.73
2018-11-29T00:57:47.449Z,21.45
2018-11-29T01:00:22.095Z,19.50
2018-11-29T01:02:50.583Z,13.15
2018-11-29T01:05:19.474Z,14.63
2018-11-29T01:07:47.215Z,24.12
2018-11-29T01:10:15.794Z,13.10
2018-11-29T01:12:48.393Z,20.10
2018-11-29T01:15:17.040Z,26.07
2018-11-29T01:17:45.424Z,18.40
2018-11-29T01:20:15.152Z,23.30
2018-11-29T01:22:43.549Z,25.80
2018-11-29T01:25:13.033Z,22.07
2018-11-29T01:27:41.542Z,19.45
2018-11-29T01:30:10.706Z,17.52
2018-11-29T01:32:38.571Z,15.28
2018-11-29T01:35:08.204Z,15.25
2018-11-29T01:37:36.029Z,15.40
2018-11-29T01:40:04.563Z,18.50
2018-11-29T01:42:32.186Z,23.50
2018-11-29T01:44:59.846Z,20.10
2018-11-29T01:47:28.242Z,23.38
2018-11-29T01:49:56.450Z,17.55
2018-11-29T01:52:24.541Z,15.18
2018-11-29T01:54:52.334Z,17.37
2018-11-29T01:57:20.587Z,20.55
2018-11-29T01:59:48.462Z,11.83
2018-11-29T02:02:16.175Z,17.98
2018-11-29T02:04:43.862Z,23.77
2018-11-29T02:07:12.734Z,15.35
2018-11-29T02:09:40.690Z,15.08
2018-11-29T02:12:12.964Z,17.25
2018-11-29T02:14:40.673Z,18.37
2018-11-29T02:17:08.525Z,19.90
2018-11-29T02:19:36.166Z,20.05
2018-11-29T02:22:05.921Z,25.82
2018-11-29T02:24:34.914Z,15.58
2018-11-29T02:27:02.865Z,14.00
2018-11-29T02:29:31.436Z,18.85
2018-11-29T02:31:59.112Z,20.88
2018-11-29T02:34:26.850Z,17.90
2018-11-29T02:36:54.782Z,16.25
2018-11-29T02:39:22.493Z,19.60
2018-11-29T02:41:50.251Z,22.02
2018-11-29T02:44:18.292Z,16.77
2018-11-29T02:46:46.955Z,20.95
2018-11-29T02:49:14.770Z,14.23
2018-11-29T02:51:45.993Z,21.95
2018-11-29T02:54:15.009Z,18.07
2018-11-29T02:56:43.651Z,24.07
2018-11-29T02:59:17.108Z,13.05
2018-11-29T03:20:02.469Z,17.80
2018-11-29T03:22:35.362Z,18.07
2018-11-29T03:25:08.180Z,24.92
2018-11-29T03:27:36.450Z,17.98
2018-11-29T03:30:07.766Z,24.00
2018-11-29T03:32:38.716Z,18.80
2018-11-29T03:37:43.591Z,13.88
2018-11-29T03:49:51.336Z,24.30
2018-11-29T03:52:19.085Z,21.05
2018-11-29T03:54:46.861Z,21.97
2018-11-29T03:57:15.350Z,20.20
2018-11-29T03:59:44.759Z,14.55
2018-11-29T04:02:12.485Z,18.95
2018-11-29T04:04:42.212Z,22.05
2018-11-29T04:07:12.943Z,21.60
2018-11-29T04:09:41.241Z,16.57
2018-11-29T04:12:09.369Z,24.47
2018-11-29T04:14:37.203Z,19.07
2018-11-29T04:17:04.893Z,23.50
2018-11-29T04:19:34.376Z,22.73
2018-11-29T04:22:02.643Z,21.02
2018-11-29T04:24:31.095Z,27.05
2018-11-29T04:26:58.831Z,20.80
2018-11-29T04:29:27.104Z,22.93
2018-11-29T04:31:55.716Z,21.48
2018-11-29T04:34:23.562Z,21.12
2018-11-29T04:36:52.883Z,21.35
2018-11-29T04:39:22.881Z,21.77
2018-11-29T04:41:51.793Z,22.62
2018-11-29T04:44:28.841Z,21.80
2018-11-29T04:47:15.900Z,22.90
2018-11-29T04:49:49.971Z,22.35
2018-11-29T04:52:17.877Z,22.20
2018-11-29T04:54:45.632Z,21.45
2018-11-29T04:57:13.375Z,20.00
2018-11-29T04:59:41.117Z,20.55
2018-11-29T05:02:08.771Z,17.73
2018-11-29T05:04:36.433Z,24.00
2018-11-29T05:07:04.737Z,19.60
2018-11-29T05:09:32.480Z,15.28
2018-11-29T05:12:00.139Z,18.75
2018-11-29T05:14:27.878Z,16.37
2018-11-29T05:16:55.629Z,16.23
2018-11-29T05:19:23.824Z,22.05
2018-11-29T05:21:52.190Z,17.55
2018-11-29T05:24:19.864Z,17.77
2018-11-29T05:26:47.516Z,17.10
2018-11-29T05:29:16.170Z,19.45
2018-11-29T05:31:44.085Z,12.73
2018-11-29T05:34:11.946Z,23.00
2018-11-29T05:36:39.659Z,14.95
2018-11-29T05:39:07.680Z,21.73
2018-11-29T05:41:40.427Z,16.27
2018-11-29T05:44:08.611Z,16.37
2018-11-29T05:46:36.999Z,11.12
2018-11-29T05:49:04.891Z,20.68
2018-11-29T05:51:33.050Z,17.30
2018-11-29T05:54:00.844Z,15.15
2018-11-29T05:56:28.669Z,18.77
2018-11-29T05:58:56.518Z,19.57
2018-11-29T06:01:29.047Z,24.63
2018-11-29T06:03:56.886Z,24.67
2018-11-29T06:06:25.556Z,18.62
2018-11-29T06:08:53.391Z,25.60
2018-11-29T06:11:21.124Z,22.60
2018-11-29T06:13:48.819Z,25.70
2018-11-29T06:16:16.700Z,20.15
2018-11-29T06:18:44.339Z,25.08
2018-11-29T06:21:12.016Z,20.12
2018-11-29T06:23:39.964Z,25.82
2018-11-29T06:26:07.649Z,22.95
2018-11-29T06:28:35.270Z,21.05
2018-11-29T06:31:03.105Z,22.82
2018-11-29T06:33:30.753Z,23.62
2018-11-29T06:36:02.050Z,20.05
2018-11-29T06:38:26.732Z,21.02
2018-11-29T06:40:55.128Z,20.55
2018-11-29T06:43:22.810Z,21.00
2018-11-29T06:45:50.572Z,21.33
2018-11-29T06:48:18.255Z,20.75
2018-11-29T06:50:46.116Z,19.95
2018-11-29T06:53:19.494Z,18.27
2018-11-29T06:55:47.168Z,21.55
2018-11-29T06:58:14.860Z,21.85
2018-11-29T07:00:42.569Z,20.50
2018-11-29T07:03:10.866Z,20.50
2018-11-29T07:05:38.531Z,22.32
2018-11-29T07:08:06.537Z,18.00
2018-11-29T07:10:35.085Z,23.47
2018-11-29T07:13:04.058Z,19.75
2018-11-29T07:15:32.044Z,16.37
2018-11-29T07:17:59.899Z,19.98
2018-11-29T07:20:28.346Z,19.80
2018-11-29T07:22:56.317Z,20.35
2018-11-29T07:25:24.200Z,18.87
2018-11-29T07:27:51.916Z,22.17
2018-11-29T07:30:20.749Z,18.48
2018-11-29T07:32:48.499Z,19.95
2018-11-29T07:35:16.809Z,19.27
2018-11-29T07:37:44.644Z,20.37
2018-11-29T07:40:15.009Z,22.75
2018-11-29T07:42:43.468Z,17.50
2018-11-29T07:45:12.846Z,22.85
2018-11-29T07:47:41.363Z,17.77
2018-11-29T07:50:10.869Z,20.20
2018-11-29T07:52:38.807Z,22.35
2018-11-29T07:55:12.047Z,19.67
2018-11-29T07:57:39.782Z,17.12
2018-11-29T08:00:10.100Z,20.20
2018-11-29T08:02:37.828Z,22.27
2018-11-29T08:05:07.273Z,17.65
2018-11-29T08:07:35.058Z,20.23
2018-11-29T08:10:02.778Z,23.45
2018-11-29T08:12:31.271Z,20.88
2018-11-29T08:14:59.136Z,20.32
2018-11-29T08:17:26.808Z,21.80
2018-11-29T08:19:54.613Z,18.07
2018-11-29T08:22:22.830Z,18.42
2018-11-29T08:24:50.671Z,18.90
2018-11-29T08:27:19.003Z,19.00
2018-11-29T08:29:46.845Z,22.37
2018-11-29T08:32:14.722Z,17.80
2018-11-29T08:34:47.086Z,19.85
2018-11-29T08:37:14.839Z,18.32
2018-11-29T08:39:42.638Z,21.55
2018-11-29T08:42:10.399Z,21.15
2018-11-29T08:44:38.124Z,19.48
2018-11-29T08:47:05.950Z,17.77
2018-11-29T08:49:33.629Z,19.40
2018-11-29T08:52:01.334Z,20.25
2018-11-29T08:54:29.137Z,20.23
2018-11-29T08:56:57.232Z,16.52
2018-11-29T08:59:25.358Z,20.37
2018-11-29T09:01:53.106Z,19.42
2018-11-29T09:04:20.859Z,16.52
2018-11-29T09:06:48.554Z,16.97
2018-11-29T09:09:16.478Z,17.42
2018-11-29T09:11:45.432Z,20.90
2018-11-29T09:14:12.929Z,17.10
2018-11-29T09:16:41.227Z,16.93
2018-11-29T09:19:08.980Z,15.55
2018-11-29T09:21:36.734Z,15.30
2018-11-29T09:24:04.884Z,14.28
2018-11-29T09:26:32.592Z,17.50
2018-11-29T09:29:00.317Z,17.75
2018-11-29T09:31:28.111Z,14.45
2018-11-29T09:33:55.946Z,19.35
2018-11-29T09:36:24.422Z,16.55
2018-11-29T09:38:52.325Z,14.25
2018-11-29T09:41:19.997Z,15.93
2018-11-29T09:43:47.758Z,19.90
2018-11-29T09:46:15.499Z,17.02
2018-11-29T09:48:43.911Z,14.85
2018-11-29T09:51:12.217Z,21.50
2018-11-29T09:53:39.993Z,15.32
2018-11-29T09:56:07.737Z,20.65
2018-11-29T09:58:35.801Z,19.23
2018-11-29T10:01:03.703Z,18.45
2018-11-29T10:03:31.378Z,18.50
2018-11-29T10:05:59.121Z,16.42
2018-11-29T10:08:27.509Z,15.45
2018-11-29T10:10:55.329Z,17.62
2018-11-29T10:13:22.965Z,16.15
2018-11-29T10:15:50.711Z,17.85
2018-11-29T10:18:18.512Z,17.20
2018-11-29T10:20:46.212Z,15.90
2018-11-29T10:23:14.407Z,15.72
2018-11-29T10:25:42.060Z,14.65
2018-11-29T10:28:13.868Z,15.68
2018-11-29T10:30:58.523Z,14.68
2018-11-29T10:33:26.339Z,11.95
2018-11-29T10:35:59.058Z,17.23
2018-11-29T10:38:22.471Z,14.85
2018-11-29T10:40:50.335Z,13.60
2018-11-29T10:43:18.253Z,13.28
2018-11-29T10:45:46.006Z,14.87
2018-11-29T10:48:16.607Z,15.13
2018-11-29T10:50:44.383Z,17.70
2018-11-29T10:53:12.838Z,13.13
2018-11-29T10:55:40.659Z,12.28
2018-11-29T10:58:08.378Z,14.50
2018-11-29T11:00:41.852Z,12.45
2018-11-29T11:03:15.798Z,18.27
2018-11-29T11:05:43.593Z,11.90
2018-11-29T11:08:11.262Z,10.25
2018-11-29T11:10:39.807Z,13.15
2018-11-29T11:13:08.336Z,10.72
2018-11-29T11:15:36.270Z,12.37
2018-11-29T11:18:04.619Z,12.53
2018-11-29T11:20:32.392Z,12.05
2018-11-29T11:23:00.366Z,11.73
2018-11-29T11:25:28.111Z,10.80
2018-11-29T11:27:55.840Z,14.43
2018-11-29T11:30:23.611Z,10.32
2018-11-29T11:32:51.931Z,14.00
2018-11-29T11:35:19.952Z,13.75
2018-11-29T11:37:47.579Z,9.60
2018-11-29T11:40:16.114Z,16.10
2018-11-29T11:42:44.709Z,11.68
2018-11-29T11:45:14.490Z,12.35
2018-11-29T11:47:42.524Z,12.53
2018-11-29T11:50:14.395Z,11.53
2018-11-29T11:52:42.367Z,9.85
2018-11-29T11:55:10.477Z,11.45
2018-11-29T11:57:38.467Z,10.65
2018-11-29T12:00:10.992Z,10.80
2018-11-29T12:02:38.661Z,10.95
2018-11-29T12:05:07.667Z,12.15
2018-11-29T12:07:35.369Z,9.53
2018-11-29T12:10:03.165Z,9.48
2018-11-29T12:12:30.869Z,13.45
2018-11-29T12:14:58.646Z,11.25
2018-11-29T12:17:26.353Z,12.93
2018-11-29T12:19:54.113Z,14.68
2018-11-29T12:22:22.020Z,12.30
2018-11-29T12:24:49.670Z,13.53
2018-11-29T12:27:17.412Z,12.63
2018-11-29T12:29:45.428Z,13.78
2018-11-29T12:32:14.029Z,13.55
2018-11-29T12:34:41.809Z,10.30
2018-11-29T12:37:09.483Z,10.45
2018-11-29T12:39:37.377Z,11.38
2018-11-29T12:42:05.619Z,12.60
2018-11-29T12:44:33.270Z,10.28
2018-11-29T12:47:01.002Z,10.10
2018-11-29T12:49:28.939Z,10.40
2018-11-29T12:51:57.366Z,10.68
2018-11-29T12:54:25.232Z,9.15
2018-11-29T12:56:53.074Z,7.92
2018-11-29T12:59:20.962Z,8.68
2018-11-29T13:01:48.807Z,8.33
2018-11-29T13:04:16.554Z,8.10
2018-11-29T13:06:44.393Z,10.03
2018-11-29T13:09:12.696Z,9.85
2018-11-29T13:11:40.510Z,11.65
2018-11-29T13:14:08.573Z,8.33
2018-11-29T13:16:37.075Z,11.68
2018-11-29T13:19:05.159Z,9.90
2018-11-29T13:21:33.598Z,9.93
2018-11-29T13:24:01.984Z,10.53
2018-11-29T13:26:29.671Z,12.90
2018-11-29T13:28:57.370Z,11.63
2018-11-29T13:31:25.106Z,12.00
2018-11-29T13:33:52.828Z,13.13
2018-11-29T13:36:20.663Z,13.60
2018-11-29T13:38:48.543Z,14.80
2018-11-29T13:41:16.228Z,12.68
2018-11-29T13:43:43.895Z,10.93
2018-11-29T13:46:11.688Z,13.75
2018-11-29T13:48:39.377Z,11.15
2018-11-29T13:51:07.245Z,11.73
2018-11-29T13:53:35.040Z,12.30
2018-11-29T13:56:02.740Z,11.50
2018-11-29T13:58:30.442Z,9.93
2018-11-29T14:00:58.259Z,13.90
2018-11-29T14:03:26.469Z,12.68
2018-11-29T14:05:54.505Z,10.08
2018-11-29T14:08:22.354Z,10.70
2018-11-29T14:10:50.767Z,12.13
2018-11-29T14:13:18.452Z,12.35
2018-11-29T14:15:46.484Z,10.98
2018-11-29T14:18:14.815Z,11.65
2018-11-29T14:20:42.626Z,18.23
2018-11-29T14:23:10.383Z,10.68
2018-11-29T14:25:38.306Z,11.10
2018-11-29T14:28:06.808Z,12.28
2018-11-29T14:30:35.595Z,10.15
2018-11-29T14:33:04.001Z,11.83
2018-11-29T14:35:31.787Z,9.33
2018-11-29T14:37:59.578Z,10.08
2018-11-29T14:40:28.892Z,11.68
2018-11-29T14:42:56.630Z,10.30
2018-11-29T14:45:25.615Z,10.63
2018-11-29T14:47:53.634Z,12.07
2018-11-29T14:50:27.080Z,11.20
2018-11-29T14:52:54.833Z,12.75
2018-11-29T14:55:22.552Z,12.07
2018-11-29T14:57:50.261Z,8.80
2018-11-29T15:00:18.158Z,12.03
2018-11-29T15:02:46.109Z,8.55
2018-11-29T15:05:17.519Z,8.08
2018-11-29T15:07:45.434Z,11.43
2018-11-29T15:10:13.931Z,9.73
2018-11-29T15:12:41.782Z,8.85
2018-11-29T15:15:10.998Z,12.03
2018-11-29T15:17:39.720Z,10.58
2018-11-29T15:20:13.536Z,8.90
2018-11-29T15:22:41.872Z,9.30
2018-11-29T15:25:09.889Z,9.83
2018-11-29T15:27:37.668Z,9.38
2018-11-29T15:30:12.951Z,9.20
2018-11-29T15:32:41.749Z,10.82
2018-11-29T15:35:10.187Z,11.35
2018-11-29T15:37:37.857Z,10.25
2018-11-29T15:40:12.222Z,12.98
2018-11-29T15:42:39.945Z,9.63
2018-11-29T15:45:14.842Z,9.70
2018-11-29T15:47:43.945Z,12.45
2018-11-29T15:50:13.247Z,10.60
2018-11-29T15:52:41.142Z,8.73
2018-11-29T15:55:19.260Z,10.30
2018-11-29T15:57:48.749Z,11.48
2018-11-29T16:00:32.115Z,10.98
2018-11-29T16:03:02.408Z,7.53
2018-11-29T16:05:30.191Z,10.90
2018-11-29T16:07:57.972Z,8.63
2018-11-29T16:10:26.631Z,11.28
2018-11-29T16:12:55.175Z,9.23
2018-11-29T16:15:23.014Z,12.07
2018-11-29T16:17:51.684Z,10.85
2018-11-29T16:20:23.747Z,14.80
2018-11-29T16:22:51.609Z,11.22
2018-11-29T16:25:19.651Z,11.85
2018-11-29T16:27:47.380Z,11.03
2018-11-29T16:30:50.391Z,13.00
2018-11-29T16:33:23.626Z,10.75
2018-11-29T16:35:51.497Z,11.35
2018-11-29T16:38:19.879Z,12.50
2018-11-29T16:40:47.601Z,12.10
2018-11-29T16:43:15.487Z,13.40
2018-11-29T16:45:43.224Z,12.65
2018-11-29T16:48:10.966Z,12.18
2018-11-29T16:50:38.775Z,13.58
2018-11-29T16:53:07.082Z,11.93
2018-11-29T16:55:35.209Z,14.63
2018-11-29T16:58:09.331Z,9.63
2018-11-29T17:00:37.091Z,15.28
2018-11-29T17:03:04.953Z,12.30
2018-11-29T17:05:32.695Z,11.97
2018-11-29T17:08:01.785Z,11.78
2018-11-29T17:10:29.498Z,12.98
2018-11-29T17:12:59.201Z,14.28
2018-11-29T17:15:27.209Z,11.25
2018-11-29T17:17:55.058Z,11.90
2018-11-29T17:20:22.797Z,10.48
2018-11-29T17:22:51.501Z,12.95
2018-11-29T17:25:20.018Z,14.70
2018-11-29T17:27:47.776Z,10.55
2018-11-29T17:30:19.790Z,12.00
2018-11-29T17:32:48.251Z,11.80
2018-11-29T17:35:16.514Z,13.32
2018-11-29T17:37:44.587Z,12.20
2018-11-29T17:40:15.326Z,11.90
2018-11-29T17:42:43.174Z,11.48
2018-11-29T17:45:12.523Z,8.70
2018-11-29T17:47:41.000Z,9.60
2018-11-29T17:50:31.068Z,10.30
2018-11-29T17:52:59.583Z,13.03
2018-11-29T17:55:28.706Z,9.90
2018-11-29T17:57:56.890Z,12.50
2018-11-29T18:00:30.851Z,11.60
2018-11-29T18:02:59.085Z,12.00
2018-11-29T18:05:27.016Z,11.48
2018-11-29T18:07:55.423Z,10.45
2018-11-29T18:10:25.607Z,10.45
2018-11-29T18:13:11.337Z,9.60
2018-11-29T18:15:39.182Z,11.38
2018-11-29T18:18:06.878Z,12.28
2018-11-29T18:20:35.509Z,14.10
2018-11-29T18:23:03.697Z,11.48
2018-11-29T18:25:31.501Z,10.30
2018-11-29T18:27:59.278Z,13.10
2018-11-29T18:30:27.218Z,10.35
2018-11-29T18:32:55.250Z,10.15
2018-11-29T18:35:23.087Z,10.28
2018-11-29T18:37:50.920Z,10.65
2018-11-29T18:40:19.791Z,10.72
2018-11-29T18:42:53.236Z,13.30
2018-11-29T18:45:21.025Z,11.03
2018-11-29T18:47:49.891Z,12.40
2018-11-29T18:50:19.931Z,11.15
2018-11-29T18:52:47.851Z,13.83
2018-11-29T18:55:15.944Z,9.45
2018-11-29T18:57:44.019Z,10.65
2018-11-29T19:00:14.527Z,11.65
2018-11-29T19:02:42.606Z,10.88
2018-11-29T19:05:10.671Z,12.63
2018-11-29T19:07:38.641Z,17.77
2018-11-29T19:10:11.688Z,13.32
2018-11-29T19:12:41.043Z,12.95
2018-11-29T19:15:11.254Z,11.18
2018-11-29T19:17:39.534Z,13.13
2018-11-29T19:20:10.226Z,11.33
2018-11-29T19:22:38.070Z,9.70
2018-11-29T19:25:08.550Z,13.10
2018-11-29T19:27:36.373Z,10.63
2018-11-29T19:30:06.722Z,12.98
2018-11-29T19:32:34.961Z,12.85
2018-11-29T19:35:02.670Z,11.83
2018-11-29T19:37:30.581Z,11.43
2018-11-29T19:39:58.469Z,11.85
2018-11-29T19:42:27.615Z,16.57
2018-11-29T19:44:56.586Z,14.10
2018-11-29T19:47:24.633Z,10.15
2018-11-29T19:49:52.460Z,10.05
2018-11-29T19:52:20.305Z,14.80
2018-11-29T19:54:48.196Z,12.63
2018-11-29T19:57:22.972Z,13.55
2018-11-29T19:59:51.054Z,14.23
2018-11-29T20:02:20.839Z,15.03
2018-11-29T20:04:48.655Z,12.58
2018-11-29T20:07:16.543Z,13.22
2018-11-29T20:09:44.621Z,14.98
2018-11-29T20:12:13.309Z,11.25
2018-11-29T20:14:41.280Z,12.93
2018-11-29T20:17:09.831Z,11.05
2018-11-29T20:19:37.610Z,14.58
2018-11-29T20:22:09.644Z,11.85
2018-11-29T20:24:37.527Z,11.88
2018-11-29T20:27:06.136Z,14.95
2018-11-29T20:29:33.533Z,14.28
2018-11-29T20:32:01.506Z,10.78
2018-11-29T20:34:29.474Z,15.63
2018-11-29T20:36:57.992Z,11.00
2018-11-29T20:39:30.394Z,11.73
2018-11-29T20:41:58.565Z,10.15
2018-11-29T20:44:26.610Z,12.05
2018-11-29T20:46:58.623Z,13.22
2018-11-29T20:49:26.816Z,9.25
2018-11-29T20:51:55.710Z,12.00
2018-11-29T20:54:23.503Z,11.90
2018-11-29T20:56:51.287Z,10.38
2018-11-29T20:59:19.104Z,12.58
2018-11-29T21:01:47.051Z,9.65
2018-11-29T21:04:14.895Z,10.68
2018-11-29T21:06:42.681Z,13.00
2018-11-29T21:09:12.248Z,14.35
2018-11-29T21:11:40.197Z,12.20
2018-11-29T21:14:08.544Z,11.33
2018-11-29T21:16:36.587Z,12.07
2018-11-29T21:19:05.510Z,11.08
2018-11-29T21:21:33.415Z,12.40
2018-11-29T21:24:01.222Z,12.43
2018-11-29T21:26:29.208Z,12.00
2018-11-29T21:28:57.469Z,13.45
2018-11-29T21:31:25.398Z,11.70
2018-11-29T21:33:53.352Z,11.53
2018-11-29T21:36:21.190Z,15.05
2018-11-29T21:38:49.082Z,14.50
2018-11-29T21:41:16.959Z,12.37
2018-11-29T21:43:44.763Z,14.30
2018-11-29T21:46:12.637Z,14.47
2018-11-29T21:48:40.534Z,11.85
2018-11-29T21:51:09.086Z,12.70
2018-11-29T21:53:36.921Z,13.35
2018-11-29T21:56:04.732Z,13.20
2018-11-29T21:58:32.538Z,11.53
2018-11-29T22:01:00.331Z,9.48
2018-11-29T22:03:28.270Z,12.30
2018-11-29T22:05:56.975Z,14.55
2018-11-29T22:08:24.761Z,13.53
2018-11-29T22:10:53.275Z,12.65
2018-11-29T22:13:20.975Z,19.67
2018-11-29T22:15:48.873Z,13.58
2018-11-29T22:18:19.551Z,13.38
2018-11-29T22:20:48.736Z,13.58
2018-11-29T22:23:17.182Z,15.13
2018-11-29T22:25:46.289Z,14.20
2018-11-29T22:28:14.390Z,14.43
2018-11-29T22:30:42.842Z,13.25
2018-11-29T22:33:10.726Z,16.67
2018-11-29T22:35:38.942Z,14.33
2018-11-29T22:38:07.290Z,17.25
2018-11-29T22:40:35.151Z,11.97
2018-11-29T22:43:03.110Z,12.60
2018-11-29T22:45:30.805Z,12.78
2018-11-29T22:47:58.564Z,12.10
2018-11-29T22:50:26.262Z,14.47
2018-11-29T22:52:54.457Z,12.88
2018-11-29T22:55:22.890Z,12.82
2018-11-29T22:57:50.616Z,15.70
2018-11-29T23:00:19.430Z,14.15
2018-11-29T23:02:48.405Z,13.95
2018-11-29T23:05:16.571Z,14.13
2018-11-29T23:07:45.498Z,16.67
2018-11-29T23:10:13.482Z,16.55
2018-11-29T23:12:41.368Z,14.40
2018-11-29T23:15:10.360Z,12.98
2018-11-29T23:17:39.338Z,10.90
2018-11-29T23:20:10.454Z,13.22
2018-11-29T23:22:39.353Z,14.00
2018-11-29T23:25:10.467Z,14.68
2018-11-29T23:27:39.456Z,13.45
2018-11-29T23:30:10.995Z,14.38
2018-11-29T23:32:39.211Z,13.90
2018-11-29T23:35:07.761Z,12.23
2018-11-29T23:37:35.639Z,15.50
2018-11-29T23:40:10.362Z,14.13
2018-11-29T23:42:38.951Z,12.28
2018-11-29T23:45:08.440Z,13.70
2018-11-29T23:47:36.325Z,17.12
2018-11-29T23:50:06.190Z,16.35
2018-11-29T23:52:35.398Z,16.37
2018-11-29T23:55:03.542Z,13.75
2018-11-29T23:57:31.341Z,11.35
2018-11-29T23:59:59.298Z,15.30
